Menu       Home   X °F

Selecionar outro período ( Esconder esta área )

Unidade Período Personalizar data Ir para
Métrica Imperial Ambos
Dia Semana Mês Ano
use ambos os seletores de data para um intervalo de tempo pretendido
dia anterior
Data de inicio
Dia resumo de Segunda-feira 15 Julho 2024
Hora Temp. ( °C ) Ponto de orvalho ( °C ) Vento ( km/h ) Direcção do vento Rajada ( km/h ) Pressão ( hPa ) Humid.( % ) Taxa de precipitação ( cm )
Máxima21,6 20,3 18,0 WSW ( 332/1175 ) 22,0 1017,7 99 1,80
Média20,3 18,8 9,8 WSW #40/120 12,4 1015,5 92 3,60
Mínima19,0 15,7 3,0   4,0 1014,3 71 -
Dia detalhado de Segunda-feira 15 Julho 2024
Hora Temp. ( °C ) Ponto de orvalho ( °C ) Vento ( km/h ) Direcção do vento Rajada ( km/h ) Pressão ( hPa ) Humid.( % ) Taxa de precipitação ( cm )
00:04 20,1 19,0 7,0 WSW 11,0 1015,2 94 -
00:09 20,1 19,0 6,0 SW 9,0 1015,2 94 -
00:14 20,1 19,0 4,0 SW 6,0 1015,3 94 -
00:19 20,1 19,0 6,0 WSW 7,0 1015,1 94 -
00:24 20,0 19,1 5,0 SW 6,0 1015,3 95 -
00:29 20,0 19,1 6,0 WSW 7,0 1015,4 95 -
00:34 20,0 19,1 6,0 SW 7,0 1015,5 95 -
00:39 20,1 19,2 6,0 West 7,0 1015,4 95 -
00:44 20,0 19,1 9,0 WSW 11,0 1015,4 95 -
00:49 20,0 19,1 8,0 WSW 11,0 1015,6 95 -
00:54 20,0 19,1 9,0 WSW 11,0 1015,5 95 -
00:59 20,0 19,1 6,0 WSW 9,0 1015,4 95 -
01:04 20,0 19,1 5,0 SW 7,0 1015,3 95 -
01:09 20,0 19,1 7,0 SW 9,0 1015,3 95 -
01:14 20,1 19,2 9,0 WSW 11,0 1015,4 95 -
01:19 20,1 19,2 8,0 WSW 9,0 1015,4 95 -
01:24 20,0 19,1 7,0 WSW 9,0 1015,3 95 -
01:29 20,0 19,1 9,0 WSW 11,0 1015,4 95 -
01:34 20,0 19,1 6,0 WSW 7,0 1015,3 95 -
01:39 20,0 19,1 8,0 SW 11,0 1015,3 95 -
01:44 20,1 19,2 7,0 WSW 9,0 1015,1 95 -
01:49 20,1 19,2 6,0 WSW 9,0 1015,3 95 -
01:54 20,2 19,3 8,0 SW 9,0 1015,2 95 -
01:59 20,2 19,3 6,0 SSW 7,0 1015,0 95 -
02:04 20,3 19,4 8,0 SW 9,0 1015,0 95 -
02:09 20,3 19,4 6,0 SW 7,0 1014,8 95 -
02:14 20,3 19,4 6,0 SW 7,0 1014,9 95 -
02:19 20,4 19,5 8,0 WSW 9,0 1014,9 95 -
02:24 20,4 19,3 10,0 WSW 13,0 1015,0 94 -
02:29 20,5 19,4 11,0 WSW 15,0 1014,8 94 -
02:34 20,5 19,4 11,0 WSW 13,0 1014,8 94 -
02:39 20,6 19,5 13,0 WSW 17,0 1014,9 94 -
02:44 20,6 19,5 9,0 WSW 11,0 1014,7 94 -
02:49 20,7 19,6 10,0 WSW 13,0 1014,7 94 -
02:54 20,7 19,6 10,0 SW 11,0 1014,7 94 -
02:59 20,8 19,7 8,0 WSW 9,0 1014,5 94 -
03:04 20,8 19,7 10,0 SSW 11,0 1014,5 94 -
03:09 20,8 19,7 10,0 SW 15,0 1014,4 94 -
03:14 20,8 19,7 8,0 WSW 9,0 1014,4 94 -
03:19 20,8 19,7 7,0 SW 9,0 1014,4 94 -
03:24 20,8 19,7 8,0 SW 9,0 1014,4 94 -
03:29 20,8 19,7 7,0 SW 11,0 1014,3 94 -
03:34 20,8 19,7 6,0 SW 7,0 1014,3 94 -
03:39 20,8 19,7 8,0 SSW 11,0 1014,5 94 -
03:44 20,8 19,7 7,0 SSW 9,0 1014,4 94 -
03:49 20,9 19,8 12,0 SW 15,0 1014,3 94 -
03:54 20,9 19,8 11,0 SW 15,0 1014,5 94 -
03:59 20,9 19,8 9,0 SW 13,0 1014,4 94 -
04:04 20,9 19,8 9,0 WSW 11,0 1014,4 94 -
04:09 20,9 19,9 15,0 WSW 18,0 1014,4 95 -
04:14 20,8 19,9 8,0 SW 11,0 1014,4 95 -
04:19 20,8 19,9 12,0 WSW 17,0 1014,4 95 -
04:24 20,8 19,9 14,0 WSW 15,0 1014,3 95 -
04:29 20,8 20,2 11,0 SW 13,0 1014,5 96 -
04:34 20,7 20,3 13,0 WNW 17,0 1014,6 97 -
04:39 20,7 20,3 14,0 SW 17,0 1014,4 97 -
04:44 20,6 20,3 11,0 WSW 13,0 1014,5 98 -
04:49 20,6 20,3 11,0 WSW 15,0 1014,6 98 -
04:54 20,6 20,3 9,0 SW 11,0 1014,7 98 -
04:59 20,6 20,3 6,0 WSW 7,0 1014,5 98 -
05:04 20,6 20,3 11,0 WSW 15,0 1014,6 98 -
05:09 20,6 20,3 11,0 SW 15,0 1014,4 99 -
05:14 20,5 20,3 11,0 WSW 15,0 1014,7 99 -
05:19 20,5 20,3 9,0 SW 11,0 1014,8 99 -
05:24 20,5 20,3 9,0 West 13,0 1014,7 99 -
05:29 20,5 20,3 11,0 West 15,0 1015,0 99 -
05:34 20,4 20,2 7,0 WSW 9,0 1015,0 99 1,80
05:39 20,4 20,2 15,0 WNW 20,0 1015,0 99 1,80
05:44 20,2 20,0 11,0 West 13,0 1015,0 99 -
05:49 20,1 19,9 12,0 West 15,0 1015,1 99 -
05:54 20,0 19,8 6,0 WSW 7,0 1015,0 99 -
05:59 20,0 19,8 6,0 WSW 9,0 1015,1 99 -
06:04 20,0 19,8 7,0 West 9,0 1015,3 99 -
06:09 20,0 19,8 6,0 WSW 9,0 1015,2 99 -
06:14 19,9 19,7 5,0 WSW 6,0 1015,0 99 -
06:19 19,9 19,7 4,0 WSW 6,0 1015,2 99 -
06:24 19,9 19,7 4,0 SW 6,0 1015,0 99 -
06:29 19,9 19,7 4,0 WSW 6,0 1015,2 99 -
06:34 19,9 19,7 3,0 WSW 4,0 1015,4 99 -
06:39 19,9 19,7 4,0 West 4,0 1015,4 99 -
06:44 19,9 19,7 11,0 WNW 11,0 1015,6 99 -
06:49 19,9 19,7 10,0 NW 13,0 1015,6 99 -
06:54 19,6 19,4 11,0 NW 17,0 1015,8 99 -
06:59 19,3 19,1 11,0 NW 15,0 1015,6 99 -
07:04 19,3 19,1 12,0 NW 15,0 1015,7 99 -
07:09 19,1 18,9 11,0 NW 15,0 1015,7 99 -
07:14 19,0 18,7 13,0 NNW 17,0 1015,8 98 -
07:19 19,1 18,8 10,0 NNW 13,0 1016,0 98 -
07:24 19,1 18,8 8,0 NNW 11,0 1016,1 98 -
07:29 19,2 18,8 16,0 NNE 20,0 1016,1 97 -
07:34 19,2 18,6 12,0 NNW 17,0 1016,2 96 -
07:39 19,2 18,6 13,0 NNW 17,0 1016,4 96 -
07:44 19,0 17,8 12,0 NNW 17,0 1016,4 94 -
07:49 19,1 17,7 15,0 NNW 17,0 1016,4 92 -
07:54 19,4 17,5 14,0 North 17,0 1016,6 90 -
07:59 19,5 17,3 15,0 NNW 18,0 1016,6 88 -
08:04 19,6 16,7 17,0 NNW 22,0 1016,7 84 -
08:09 20,1 16,6 11,0 North 15,0 1016,6 80 -
08:14 20,3 16,7 11,0 NNW 17,0 1016,7 80 -
08:19 20,4 16,7 11,0 NNW 15,0 1016,9 79 -
08:24 20,4 16,7 12,0 NNW 13,0 1017,0 79 -
08:29 20,6 16,7 13,0 NNE 15,0 1017,0 78 -
08:34 20,6 16,4 16,0 NNE 18,0 1017,0 77 -
08:39 20,3 15,9 14,0 NNW 17,0 1017,2 76 -
08:44 20,4 16,0 13,0 NNW 17,0 1017,1 76 -
08:49 20,4 16,0 11,0 NNE 15,0 1017,3 76 -
08:54 20,5 16,0 8,0 NNW 13,0 1017,3 76 -
08:59 20,8 16,1 11,0 NNE 11,0 1017,4 75 -
09:04 20,8 16,0 14,0 North 17,0 1017,4 74 -
09:09 20,6 15,8 18,0 North 22,0 1017,4 74 -
09:14 20,5 15,9 18,0 NNW 22,0 1017,4 75 -
09:19 20,9 16,1 12,0 North 17,0 1017,4 74 -
09:24 20,9 16,1 17,0 North 20,0 1017,5 76 -
09:29 21,1 16,4 9,0 North 11,0 1017,7 76 -
09:34 21,4 16,7 10,0 North 11,0 1017,5 75 -
09:39 21,5 16,7 12,0 NNW 13,0 1017,5 74 -
09:44 21,4 16,4 14,0 North 15,0 1017,4 74 -
09:49 21,5 16,7 15,0 North 17,0 1017,4 74 -
09:54 21,3 16,3 15,0 North 18,0 1017,5 73 -
09:59 21,6 15,7 13,0 North 17,0 1017,6 71 -

Dados meteorológicos armazenados em Weather Underground. Original script b Jim McMurry. Rewritten for template use Leuven-Template